Time;durP1;ratioP1;P1;durP2;ratioP2;P2;SDS_P1;SDS_P2;PMS_P1;PMS_P2;Temp;Humidity;BMP_temperature;BMP_pressure;BME280_temperature;BME280_humidity;BME280_pressure;Samples;Min_cycle;Max_cycle;Signal;HPM_P1;HPM_P2
2022/01/13 00:00:20;;;;;;;8.10;3.78;;;;;;;;;;5011916;28;20073;-74
2022/01/13 00:02:47;;;;;;;7.03;3.63;;;;;;;;;;5011159;28;20056;-76
2022/01/13 00:05:17;;;;;;;6.22;3.40;;;;;;;;;;5011332;28;20141;-74
2022/01/13 00:07:45;;;;;;;6.75;3.67;;;;;;;;;;5011428;28;20038;-75
2022/01/13 00:10:12;;;;;;;5.20;3.25;;;;;;;;;;5011246;28;20053;-74
2022/01/13 00:12:43;;;;;;;8.55;3.60;;;;;;;;;;5012039;28;20121;-75
2022/01/13 00:18:37;;;;;;;;;;;;;;;;;;4952880;28;20126;-75
2022/01/13 00:21:17;;;;;;;7.78;3.40;;;;;;;;;;4939495;29;20009;-76
2022/01/13 00:23:51;;;;;;;7.03;4.30;;;;;;;;;;4939773;29;20142;-75
2022/01/13 00:26:25;;;;;;;6.25;3.80;;;;;;;;;;4955886;29;20067;-75
2022/01/13 00:28:55;;;;;;;7.97;3.75;;;;;;;;;;4939416;29;20043;-77
2022/01/13 00:31:28;;;;;;;7.43;3.72;;;;;;;;;;4939497;29;20085;-75
2022/01/13 00:33:57;;;;;;;7.13;3.67;;;;;;;;;;4954575;29;20411;-75
2022/01/13 00:36:26;;;;;;;6.00;3.88;;;;;;;;;;4954925;29;20047;-74
2022/01/13 00:38:53;;;;;;;5.55;3.50;;;;;;;;;;4955254;29;20047;-75
2022/01/13 00:41:21;;;;;;;7.95;4.03;;;;;;;;;;4955314;29;20043;-74
2022/01/13 00:44:09;;;;;;;9.02;3.83;;;;;;;;;;4955078;29;20054;-74
2022/01/13 00:46:43;;;;;;;5.05;3.30;;;;;;;;;;4954863;29;20252;-76
2022/01/13 00:49:14;;;;;;;6.97;3.67;;;;;;;;;;4940383;29;20147;-74
2022/01/13 00:51:42;;;;;;;7.35;3.72;;;;;;;;;;4971456;28;20556;-75
2022/01/13 00:54:10;;;;;;;10.10;3.63;;;;;;;;;;4998400;28;20038;-74
2022/01/13 00:56:38;;;;;;;8.50;3.70;;;;;;;;;;5015496;28;20121;-75
2022/01/13 00:59:07;;;;;;;6.82;3.60;;;;;;;;;;4997534;28;20042;-74
2022/01/13 01:01:55;;;;;;;8.60;3.50;;;;;;;;;;5015634;28;20038;-76
2022/01/13 01:04:45;;;;;;;5.40;3.55;;;;;;;;;;4997860;28;20137;-75
2022/01/13 01:07:12;;;;;;;8.48;3.88;;;;;;;;;;5015314;28;20370;-74
2022/01/13 01:09:48;;;;;;;6.63;3.80;;;;;;;;;;4998241;28;20074;-76
2022/01/13 01:12:17;;;;;;;5.18;3.78;;;;;;;;;;5001193;28;20500;-77
2022/01/13 01:14:49;;;;;;;9.00;3.90;;;;;;;;;;5034716;28;20060;-77
2022/01/13 01:17:19;;;;;;;7.45;3.38;;;;;;;;;;5034898;28;20408;-74
2022/01/13 01:19:50;;;;;;;8.27;4.30;;;;;;;;;;5034623;28;20050;-75
2022/01/13 01:22:39;;;;;;;8.23;3.78;;;;;;;;;;5034651;28;20037;-75
2022/01/13 01:27:46;;;;;;;6.03;3.50;;;;;;;;;;5034718;28;20042;-75
2022/01/13 01:32:51;;;;;;;7.20;3.70;;;;;;;;;;5035105;28;20074;-74
2022/01/13 01:35:24;;;;;;;5.10;3.60;;;;;;;;;;5017433;28;20044;-76
2022/01/13 01:37:51;;;;;;;7.60;3.92;;;;;;;;;;5016673;28;20179;-76
2022/01/13 01:40:20;;;;;;;5.60;4.00;;;;;;;;;;5017051;28;20033;-74
2022/01/13 01:42:47;;;;;;;7.93;3.70;;;;;;;;;;5034593;28;20037;-76
2022/01/13 01:45:16;;;;;;;7.88;3.60;;;;;;;;;;5034419;28;20046;-74
2022/01/13 01:47:45;;;;;;;7.55;3.60;;;;;;;;;;5034280;28;20543;-75
2022/01/13 01:50:18;;;;;;;5.43;3.67;;;;;;;;;;5016200;28;20048;-74
2022/01/13 01:52:46;;;;;;;;;;;;;;;;;;5034510;28;20049;-74
2022/01/13 01:55:15;;;;;;;6.68;3.90;;;;;;;;;;5016436;28;19924;-75
2022/01/13 01:57:43;;;;;;;7.38;3.88;;;;;;;;;;5034383;28;20054;-74
2022/01/13 02:00:15;;;;;;;6.88;3.78;;;;;;;;;;5016529;28;20045;-75
2022/01/13 02:02:44;;;;;;;8.35;4.53;;;;;;;;;;5016290;28;20515;-75
2022/01/13 02:05:12;;;;;;;8.45;3.90;;;;;;;;;;5016194;28;20041;-74
2022/01/13 02:07:39;;;;;;;7.32;3.90;;;;;;;;;;5016489;28;20048;-75
2022/01/13 02:10:08;;;;;;;5.60;3.97;;;;;;;;;;5015884;28;20140;-74
2022/01/13 02:12:44;;;;;;;7.80;3.75;;;;;;;;;;5016489;28;20054;-74
2022/01/13 02:15:28;;;;;;;6.63;3.85;;;;;;;;;;5034335;28;20042;-74
2022/01/13 02:18:02;;;;;;;8.00;3.85;;;;;;;;;;5034194;28;20041;-75
2022/01/13 02:20:43;;;;;;;9.80;3.60;;;;;;;;;;5033595;28;20077;-75
2022/01/13 02:23:13;;;;;;;8.27;3.35;;;;;;;;;;5033469;28;20059;-74
2022/01/13 02:25:41;;;;;;;4.55;3.20;;;;;;;;;;5033652;28;20049;-75
2022/01/13 02:28:09;;;;;;;10.02;4.00;;;;;;;;;;5015951;28;20049;-76
2022/01/13 02:30:37;;;;;;;9.23;4.10;;;;;;;;;;5016051;28;20041;-74
2022/01/13 02:33:05;;;;;;;5.78;3.42;;;;;;;;;;5033593;28;20448;-75
2022/01/13 02:35:37;;;;;;;9.27;3.70;;;;;;;;;;5033409;28;20044;-75
2022/01/13 02:38:11;;;;;;;5.28;3.13;;;;;;;;;;4999717;28;20502;-74
2022/01/13 02:40:39;;;;;;;8.23;3.47;;;;;;;;;;5015826;28;20033;-75
2022/01/13 02:43:09;;;;;;;6.68;3.40;;;;;;;;;;5032378;28;20441;-74
2022/01/13 02:45:50;;;;;;;8.07;3.22;;;;;;;;;;5014831;28;20053;-74
2022/01/13 02:50:52;;;;;;;8.43;3.63;;;;;;;;;;5032782;28;20048;-76
2022/01/13 02:53:21;;;;;;;10.88;3.60;;;;;;;;;;5033095;28;20041;-75
2022/01/13 02:55:56;;;;;;;5.72;3.25;;;;;;;;;;5033285;28;20048;-75
2022/01/13 02:58:24;;;;;;;6.75;3.35;;;;;;;;;;5015481;28;20136;-75
2022/01/13 03:00:54;;;;;;;6.47;3.45;;;;;;;;;;5015198;28;20065;-75
2022/01/13 03:03:22;;;;;;;6.80;3.10;;;;;;;;;;5015324;28;20115;-75
2022/01/13 03:05:50;;;;;;;8.90;3.95;;;;;;;;;;5015603;28;20046;-75
2022/01/13 03:08:18;;;;;;;7.72;3.80;;;;;;;;;;5015344;28;20042;-75
2022/01/13 03:10:45;;;;;;;6.05;3.70;;;;;;;;;;5015129;28;20408;-76
2022/01/13 03:13:13;;;;;;;6.20;3.83;;;;;;;;;;5015699;28;20120;-75
2022/01/13 03:15:42;;;;;;;7.03;4.00;;;;;;;;;;5010858;28;20037;-76
2022/01/13 03:18:10;;;;;;;10.30;3.95;;;;;;;;;;4996102;28;20042;-75
2022/01/13 03:20:40;;;;;;;14.02;4.32;;;;;;;;;;4995628;28;20038;-77
2022/01/13 03:23:10;;;;;;;10.23;5.00;;;;;;;;;;5013148;28;20038;-74
2022/01/13 03:25:38;;;;;;;11.27;5.63;;;;;;;;;;4995958;28;20049;-75
2022/01/13 03:28:13;;;;;;;13.60;5.85;;;;;;;;;;5013031;28;20052;-75
2022/01/13 03:30:42;;;;;;;10.85;5.65;;;;;;;;;;5013278;28;20046;-75
2022/01/13 03:33:09;;;;;;;9.77;5.63;;;;;;;;;;5013327;28;20046;-75
2022/01/13 03:35:38;;;;;;;10.07;5.05;;;;;;;;;;5021407;28;20033;-75
2022/01/13 03:38:06;;;;;;;8.68;4.25;;;;;;;;;;5015204;28;20048;-75
2022/01/13 03:40:35;;;;;;;9.52;4.55;;;;;;;;;;5015560;28;20217;-76
2022/01/13 03:43:04;;;;;;;9.85;4.85;;;;;;;;;;5015031;28;20045;-75
2022/01/13 03:45:33;;;;;;;9.02;4.70;;;;;;;;;;5014837;28;20050;-78
2022/01/13 03:48:01;;;;;;;7.32;4.07;;;;;;;;;;5032613;28;20116;-78
2022/01/13 03:50:30;;;;;;;7.80;3.20;;;;;;;;;;5032689;28;20053;-78
2022/01/13 03:53:03;;;;;;;6.60;3.60;;;;;;;;;;5033495;28;20132;-78
2022/01/13 03:55:38;;;;;;;6.70;3.47;;;;;;;;;;5018503;28;20132;-75
2022/01/13 03:58:16;;;;;;;6.55;3.47;;;;;;;;;;5019578;28;20504;-76
2022/01/13 04:00:56;;;;;;;6.22;2.90;;;;;;;;;;5014459;28;20070;-77
2022/01/13 04:03:24;;;;;;;6.32;2.85;;;;;;;;;;4998857;28;20042;-78
2022/01/13 04:06:03;;;;;;;6.45;3.08;;;;;;;;;;5016648;28;20044;-76
2022/01/13 04:08:32;;;;;;;6.38;2.50;;;;;;;;;;5015138;28;20524;-76
2022/01/13 04:11:20;;;;;;;5.45;2.70;;;;;;;;;;5015204;28;20058;-78
2022/01/13 04:13:56;;;;;;;6.95;2.67;;;;;;;;;;5016289;28;20463;-77
2022/01/13 04:16:31;;;;;;;12.52;3.10;;;;;;;;;;5016577;28;20038;-76
2022/01/13 04:19:04;;;;;;;6.20;2.70;;;;;;;;;;5016794;28;20037;-76
2022/01/13 04:21:34;;;;;;;4.47;2.60;;;;;;;;;;5015160;28;20082;-75
2022/01/13 04:24:03;;;;;;;4.18;2.90;;;;;;;;;;5015751;28;20057;-78
2022/01/13 04:26:33;;;;;;;8.90;3.08;;;;;;;;;;5014838;28;20046;-76
2022/01/13 04:31:35;;;;;;;5.95;3.30;;;;;;;;;;5015908;28;20081;-76
2022/01/13 04:34:02;;;;;;;7.88;3.38;;;;;;;;;;4997615;28;20073;-76
2022/01/13 04:36:32;;;;;;;4.97;2.95;;;;;;;;;;5014232;28;20450;-76
2022/01/13 04:38:59;;;;;;;11.02;2.92;;;;;;;;;;4998202;28;20050;-76
2022/01/13 04:41:37;;;;;;;7.47;2.97;;;;;;;;;;5014294;28;20054;-76
2022/01/13 04:44:21;;;;;;;6.68;3.42;;;;;;;;;;4998087;28;20156;-78
2022/01/13 04:46:50;;;;;;;8.70;3.10;;;;;;;;;;5015454;28;20056;-76
2022/01/13 04:49:19;;;;;;;6.72;2.58;;;;;;;;;;4998302;28;20050;-76
2022/01/13 04:51:47;;;;;;;11.20;3.47;;;;;;;;;;5014554;28;20042;-77
2022/01/13 04:54:15;;;;;;;11.82;3.45;;;;;;;;;;5015856;28;20110;-77
2022/01/13 04:57:03;;;;;;;8.98;3.58;;;;;;;;;;5014464;28;20589;-75
2022/01/13 04:59:31;;;;;;;8.45;3.25;;;;;;;;;;5014058;28;20596;-75
2022/01/13 05:02:01;;;;;;;8.55;2.95;;;;;;;;;;5015472;28;20042;-75
2022/01/13 05:04:29;;;;;;;11.82;3.75;;;;;;;;;;5013533;28;20049;-78
2022/01/13 05:06:56;;;;;;;10.20;3.40;;;;;;;;;;5015403;28;20037;-75
2022/01/13 05:09:24;;;;;;;13.07;3.70;;;;;;;;;;5014566;28;20050;-78
2022/01/13 05:11:52;;;;;;;15.35;4.28;;;;;;;;;;5013865;28;20132;-78
2022/01/13 05:14:20;;;;;;;9.32;3.33;;;;;;;;;;5014414;28;20046;-75
2022/01/13 05:17:01;;;;;;;13.60;3.55;;;;;;;;;;5014884;28;20061;-75
2022/01/13 05:19:37;;;;;;;7.32;2.95;;;;;;;;;;5014209;28;20468;-75
2022/01/13 05:24:38;;;;;;;7.60;2.88;;;;;;;;;;5015465;28;20042;-75
2022/01/13 05:27:06;;;;;;;9.68;3.35;;;;;;;;;;5013875;28;20072;-76
2022/01/13 05:29:34;;;;;;;7.70;3.00;;;;;;;;;;5014383;28;20053;-76
2022/01/13 05:32:01;;;;;;;7.80;3.00;;;;;;;;;;5014073;28;20042;-76
2022/01/13 05:34:30;;;;;;;8.82;3.55;;;;;;;;;;5014802;28;20053;-75
2022/01/13 05:37:14;;;;;;;8.80;3.03;;;;;;;;;;4997858;28;20453;-78
2022/01/13 05:39:42;;;;;;;8.43;3.42;;;;;;;;;;4997300;28;20042;-76
2022/01/13 05:42:10;;;;;;;10.68;3.63;;;;;;;;;;5014864;28;20478;-77
2022/01/13 05:44:38;;;;;;;9.80;3.65;;;;;;;;;;5015041;28;20048;-78
2022/01/13 05:47:07;;;;;;;10.63;3.63;;;;;;;;;;5014641;28;20400;-76
2022/01/13 05:49:40;;;;;;;8.15;3.17;;;;;;;;;;5014709;28;20045;-78
2022/01/13 05:52:07;;;;;;;10.65;3.40;;;;;;;;;;4997372;28;20509;-75
2022/01/13 05:54:36;;;;;;;9.20;3.15;;;;;;;;;;5014446;28;20041;-76
2022/01/13 05:57:04;;;;;;;13.60;3.83;;;;;;;;;;5014744;28;20030;-77
2022/01/13 05:59:32;;;;;;;8.75;3.55;;;;;;;;;;5013155;28;20038;-75
2022/01/13 06:02:00;;;;;;;9.57;3.28;;;;;;;;;;4996760;28;20046;-76
2022/01/13 06:04:29;;;;;;;9.02;3.47;;;;;;;;;;5014538;28;20437;-78
2022/01/13 06:06:58;;;;;;;10.07;3.40;;;;;;;;;;5013261;28;20096;-76
2022/01/13 06:09:25;;;;;;;6.25;3.25;;;;;;;;;;5014222;28;20046;-77
2022/01/13 06:12:02;;;;;;;11.93;3.78;;;;;;;;;;5014065;28;20536;-75
2022/01/13 06:14:30;;;;;;;10.15;3.22;;;;;;;;;;5014117;28;20042;-75
2022/01/13 06:16:58;;;;;;;7.47;3.45;;;;;;;;;;4996811;28;20041;-75
2022/01/13 06:19:29;;;;;;;9.63;3.65;;;;;;;;;;4996494;28;20493;-77
2022/01/13 06:21:58;;;;;;;11.73;3.53;;;;;;;;;;5012872;28;20034;-75
2022/01/13 06:24:26;;;;;;;11.45;4.78;;;;;;;;;;5013392;28;20049;-77
2022/01/13 06:26:57;;;;;;;12.43;3.50;;;;;;;;;;5012476;28;20052;-76
2022/01/13 06:29:25;;;;;;;7.47;3.70;;;;;;;;;;5012279;28;20205;-74
2022/01/13 06:31:54;;;;;;;10.85;3.78;;;;;;;;;;5027321;28;20038;-76
2022/01/13 06:34:23;;;;;;;12.43;3.63;;;;;;;;;;5015317;28;20042;-76
2022/01/13 06:36:51;;;;;;;11.35;3.75;;;;;;;;;;4999060;28;20034;-77
2022/01/13 06:39:19;;;;;;;15.75;4.15;;;;;;;;;;5015916;28;20065;-76
2022/01/13 06:41:46;;;;;;;9.40;3.78;;;;;;;;;;5033662;28;20091;-76
2022/01/13 06:44:15;;;;;;;16.45;5.22;;;;;;;;;;5033780;28;20136;-78
2022/01/13 06:46:43;;;;;;;17.75;4.28;;;;;;;;;;5033429;28;20048;-75
2022/01/13 06:49:10;;;;;;;14.82;5.00;;;;;;;;;;5015930;28;20046;-75
2022/01/13 06:51:38;;;;;;;9.38;3.65;;;;;;;;;;5033281;28;20038;-77
2022/01/13 06:54:08;;;;;;;14.82;4.35;;;;;;;;;;5015568;28;20051;-76
2022/01/13 06:56:35;;;;;;;14.52;3.53;;;;;;;;;;5000740;28;20050;-76
2022/01/13 06:59:09;;;;;;;15.18;4.63;;;;;;;;;;5032009;28;20412;-76
2022/01/13 07:01:38;;;;;;;10.90;4.00;;;;;;;;;;4998858;28;20578;-76
2022/01/13 07:04:09;;;;;;;15.00;3.97;;;;;;;;;;5014430;28;20103;-76
2022/01/13 07:06:37;;;;;;;14.23;4.60;;;;;;;;;;5014769;28;20140;-76
2022/01/13 07:09:07;;;;;;;14.48;4.18;;;;;;;;;;4998074;28;20050;-80
2022/01/13 07:11:36;;;;;;;12.95;5.90;;;;;;;;;;5016646;28;20408;-79
2022/01/13 07:14:04;;;;;;;9.07;4.10;;;;;;;;;;5014669;28;20038;-77
2022/01/13 07:16:31;;;;;;;14.30;4.28;;;;;;;;;;5032194;28;20548;-77
2022/01/13 07:18:59;;;;;;;17.80;4.15;;;;;;;;;;5014268;28;20114;-76
2022/01/13 07:21:27;;;;;;;14.50;4.10;;;;;;;;;;5032250;28;20050;-79
2022/01/13 07:23:59;;;;;;;13.80;4.13;;;;;;;;;;5014290;28;20065;-78
2022/01/13 07:26:27;;;;;;;10.65;3.97;;;;;;;;;;5031480;28;20045;-74
2022/01/13 07:28:55;;;;;;;14.75;4.35;;;;;;;;;;4997880;28;20041;-78
2022/01/13 07:31:24;;;;;;;14.30;4.13;;;;;;;;;;5013849;28;20053;-76
2022/01/13 07:33:52;;;;;;;12.32;3.45;;;;;;;;;;5032347;28;20067;-75
2022/01/13 07:36:20;;;;;;;13.25;4.18;;;;;;;;;;5013945;28;20045;-75
2022/01/13 07:38:48;;;;;;;13.77;4.22;;;;;;;;;;5014078;28;20048;-75
2022/01/13 07:41:20;;;;;;;13.07;4.38;;;;;;;;;;5014541;28;20038;-78
2022/01/13 07:43:53;;;;;;;9.45;4.10;;;;;;;;;;4997667;28;20128;-75
2022/01/13 07:46:25;;;;;;;12.38;3.55;;;;;;;;;;4998015;28;21392;-75
2022/01/13 07:48:54;;;;;;;12.35;3.42;;;;;;;;;;5028319;28;20045;-74
2022/01/13 07:51:22;;;;;;;12.88;3.95;;;;;;;;;;5032222;28;20038;-79
2022/01/13 07:53:51;;;;;;;10.75;3.63;;;;;;;;;;5014975;28;20045;-81
2022/01/13 07:56:21;;;;;;;18.45;4.50;;;;;;;;;;5031688;28;20026;-81
2022/01/13 07:58:48;;;;;;;9.73;4.07;;;;;;;;;;5013712;28;20042;-75
2022/01/13 08:01:16;;;;;;;12.05;3.95;;;;;;;;;;5032026;28;20071;-77
2022/01/13 08:03:47;;;;;;;13.80;3.45;;;;;;;;;;5014434;28;20169;-80
2022/01/13 08:06:19;;;;;;;11.00;3.70;;;;;;;;;;5009633;28;20053;-77
2022/01/13 08:08:47;;;;;;;11.68;3.78;;;;;;;;;;5032224;28;20042;-81
2022/01/13 08:11:16;;;;;;;12.73;3.60;;;;;;;;;;5013353;28;20048;-73
2022/01/13 08:13:45;;;;;;;7.65;3.20;;;;;;;;;;5014379;28;20049;-74
2022/01/13 08:16:16;;;;;;;12.88;4.10;;;;;;;;;;5034514;28;20060;-73
2022/01/13 08:21:31;;;;;;;7.70;3.90;;;;;;;;;;5028956;28;20132;-72
2022/01/13 08:24:00;;;;;;;8.18;3.42;;;;;;;;;;5014247;28;20049;-72
2022/01/13 08:26:27;;;;;;;11.88;3.40;;;;;;;;;;5031927;28;20038;-70
2022/01/13 08:28:55;;;;;;;10.55;3.55;;;;;;;;;;5014251;28;20037;-70
2022/01/13 08:31:22;;;;;;;10.57;3.70;;;;;;;;;;5032110;28;20073;-72
2022/01/13 08:33:50;;;;;;;8.77;3.45;;;;;;;;;;5014393;28;20069;-74
2022/01/13 08:36:19;;;;;;;8.45;3.45;;;;;;;;;;4997934;28;20536;-75
2022/01/13 08:38:49;;;;;;;9.07;3.45;;;;;;;;;;5013948;28;20045;-72
2022/01/13 08:41:17;;;;;;;8.63;3.58;;;;;;;;;;5034625;28;20065;-74
2022/01/13 08:43:45;;;;;;;10.98;3.63;;;;;;;;;;5017913;28;20069;-73
2022/01/13 08:46:12;;;;;;;10.38;3.75;;;;;;;;;;5035168;28;20065;-72
2022/01/13 08:48:41;;;;;;;8.05;3.70;;;;;;;;;;5017607;28;20037;-76
2022/01/13 08:51:08;;;;;;;13.70;3.58;;;;;;;;;;5043649;28;20049;-76
2022/01/13 08:53:38;;;;;;;7.95;4.15;;;;;;;;;;5036038;28;20045;-75
2022/01/13 08:56:06;;;;;;;9.65;4.05;;;;;;;;;;5034459;28;20124;-75
2022/01/13 08:58:33;;;;;;;11.02;3.78;;;;;;;;;;5000360;28;20435;-73
2022/01/13 09:01:02;;;;;;;14.60;3.95;;;;;;;;;;5034270;28;20044;-71
2022/01/13 09:03:30;;;;;;;10.02;4.85;;;;;;;;;;5031855;28;20034;-71
2022/01/13 09:05:59;;;;;;;11.93;4.00;;;;;;;;;;5034472;28;20128;-75
2022/01/13 09:08:27;;;;;;;11.43;4.47;;;;;;;;;;5016444;28;20401;-75
2022/01/13 09:10:54;;;;;;;13.85;4.13;;;;;;;;;;5016556;28;20147;-70
2022/01/13 09:13:22;;;;;;;13.07;3.78;;;;;;;;;;5035065;28;20044;-75
2022/01/13 09:16:00;;;;;;;14.00;4.03;;;;;;;;;;5014750;28;20038;-71
2022/01/13 09:18:58;;;;;;;10.85;4.47;;;;;;;;;;5033983;28;20041;-73
2022/01/13 09:21:23;;;;;;;10.63;4.30;;;;;;;;;;5034224;28;20076;-74
2022/01/13 09:23:51;;;;;;;12.57;3.90;;;;;;;;;;5015718;28;20045;-71
2022/01/13 09:26:18;;;;;;;9.32;3.50;;;;;;;;;;5034075;28;20041;-73
2022/01/13 09:28:47;;;;;;;9.07;3.60;;;;;;;;;;5034291;28;20050;-71
2022/01/13 09:31:14;;;;;;;15.20;3.33;;;;;;;;;;5017050;28;20064;-73
2022/01/13 09:33:42;;;;;;;11.80;3.70;;;;;;;;;;5033466;28;20358;-72
2022/01/13 09:36:12;;;;;;;7.45;3.72;;;;;;;;;;5016659;28;20048;-75
2022/01/13 09:38:41;;;;;;;11.63;4.28;;;;;;;;;;5034036;28;20037;-73
2022/01/13 09:41:08;;;;;;;8.85;3.67;;;;;;;;;;5034104;28;20036;-75
2022/01/13 09:43:36;;;;;;;13.00;4.15;;;;;;;;;;5000774;28;20037;-75
2022/01/13 09:46:04;;;;;;;8.65;3.60;;;;;;;;;;5034026;28;20043;-75
2022/01/13 09:48:31;;;;;;;7.88;2.97;;;;;;;;;;4999783;28;20095;-73
2022/01/13 09:50:59;;;;;;;11.05;3.65;;;;;;;;;;5015840;28;20125;-73
2022/01/13 09:53:28;;;;;;;8.73;3.60;;;;;;;;;;5034008;28;20037;-72
2022/01/13 09:55:56;;;;;;;10.68;3.42;;;;;;;;;;5033589;28;20037;-73
2022/01/13 09:58:24;;;;;;;10.75;4.70;;;;;;;;;;5015672;28;20037;-73
2022/01/13 10:00:51;;;;;;;17.05;3.75;;;;;;;;;;5033385;28;20054;-74
2022/01/13 10:03:26;;;;;;;14.15;4.25;;;;;;;;;;5015134;28;20038;-73
2022/01/13 10:05:55;;;;;;;12.73;3.97;;;;;;;;;;5031109;28;20061;-75
2022/01/13 10:08:24;;;;;;;9.02;3.45;;;;;;;;;;5005680;28;20107;-73
2022/01/13 10:10:51;;;;;;;13.00;3.60;;;;;;;;;;5012789;28;20042;-72
2022/01/13 10:13:39;;;;;;;11.75;3.80;;;;;;;;;;5021359;28;20050;-75
2022/01/13 10:18:54;;;;;;;13.90;3.80;;;;;;;;;;5095315;23;20046;-76
2022/01/13 10:21:22;;;;;;;10.35;3.65;;;;;;;;;;5002924;28;20127;-75
2022/01/13 10:24:09;;;;;;;15.05;4.60;;;;;;;;;;5025173;28;20091;-75
2022/01/13 10:26:38;;;;;;;12.93;4.10;;;;;;;;;;5031764;28;20428;-77
2022/01/13 10:29:08;;;;;;;14.23;4.30;;;;;;;;;;5024179;28;20049;-77
2022/01/13 10:31:49;;;;;;;14.52;4.18;;;;;;;;;;5020948;28;20469;-77
2022/01/13 10:34:17;;;;;;;13.15;4.53;;;;;;;;;;5021749;28;20123;-74
2022/01/13 10:37:17;;;;;;;14.55;4.40;;;;;;;;;;5019610;28;20097;-75
2022/01/13 10:39:58;;;;;;;16.58;4.45;;;;;;;;;;4969670;28;20056;-77
2022/01/13 10:43:07;;;;;;;13.45;4.10;;;;;;;;;;5002937;28;20055;-74
2022/01/13 10:45:36;;;;;;;10.68;4.30;;;;;;;;;;5013793;28;20042;-73
2022/01/13 10:48:11;;;;;;;16.95;5.00;;;;;;;;;;5001527;28;20050;-77
2022/01/13 10:50:39;;;;;;;10.18;3.85;;;;;;;;;;5020405;28;20121;-77
2022/01/13 10:53:09;;;;;;;10.10;3.88;;;;;;;;;;5021373;28;20049;-76
2022/01/13 10:55:38;;;;;;;8.43;3.63;;;;;;;;;;4990686;28;20129;-73
2022/01/13 10:58:12;;;;;;;18.38;4.47;;;;;;;;;;4993182;28;20073;-75
2022/01/13 11:00:40;;;;;;;13.07;4.45;;;;;;;;;;5003493;28;20431;-75
2022/01/13 11:03:09;;;;;;;12.30;4.35;;;;;;;;;;5003838;28;20042;-75
2022/01/13 11:05:42;;;;;;;12.65;3.95;;;;;;;;;;5023246;28;20038;-77
2022/01/13 11:08:10;;;;;;;9.33;3.87;;;;;;;;;;5006737;28;20136;-75
2022/01/13 11:10:40;;;;;;;15.45;4.63;;;;;;;;;;5032475;28;20037;-75
2022/01/13 11:13:16;;;;;;;10.20;4.28;;;;;;;;;;5026338;28;20069;-74
2022/01/13 11:15:46;;;;;;;13.95;4.07;;;;;;;;;;5015836;28;20115;-74
2022/01/13 11:18:13;;;;;;;17.05;4.40;;;;;;;;;;5012681;28;20046;-74
2022/01/13 11:20:41;;;;;;;10.10;4.00;;;;;;;;;;4970450;28;20126;-74
2022/01/13 11:23:09;;;;;;;13.57;3.80;;;;;;;;;;4975528;28;20049;-75
2022/01/13 11:25:37;;;;;;;13.15;3.58;;;;;;;;;;5019667;28;20112;-75
2022/01/13 11:28:08;;;;;;;9.75;3.80;;;;;;;;;;5018578;28;20050;-76
2022/01/13 11:30:37;;;;;;;13.07;4.30;;;;;;;;;;5001538;28;20034;-77
2022/01/13 11:33:04;;;;;;;17.85;4.43;;;;;;;;;;5022005;28;20100;-77
2022/01/13 11:35:35;;;;;;;11.50;3.38;;;;;;;;;;5022765;28;20052;-73
2022/01/13 11:38:04;;;;;;;20.70;4.10;;;;;;;;;;5019135;28;20456;-74
2022/01/13 11:40:33;;;;;;;10.25;3.70;;;;;;;;;;5006242;28;20105;-76
2022/01/13 11:43:02;;;;;;;14.68;4.05;;;;;;;;;;4986599;28;20460;-76
2022/01/13 11:45:30;;;;;;;15.02;4.55;;;;;;;;;;5014729;28;20153;-77
2022/01/13 11:48:13;;;;;;;14.52;3.83;;;;;;;;;;5012108;28;20053;-76
2022/01/13 11:50:45;;;;;;;13.05;4.18;;;;;;;;;;5012344;28;20209;-75
2022/01/13 11:53:20;;;;;;;14.80;4.15;;;;;;;;;;5020193;28;20457;-76
2022/01/13 11:56:11;;;;;;;9.65;3.50;;;;;;;;;;5020622;28;20111;-74
2022/01/13 11:58:45;;;;;;;13.05;3.90;;;;;;;;;;5004745;28;20050;-75
2022/01/13 12:01:16;;;;;;;15.65;4.45;;;;;;;;;;5019549;28;20095;-74
2022/01/13 12:03:47;;;;;;;16.00;4.28;;;;;;;;;;5020874;28;20381;-75
2022/01/13 12:06:34;;;;;;;11.68;3.67;;;;;;;;;;5020343;28;20042;-75
2022/01/13 12:09:04;;;;;;;16.65;3.80;;;;;;;;;;5020689;28;20388;-75
2022/01/13 12:11:51;;;;;;;15.88;3.50;;;;;;;;;;5019729;28;20532;-73
2022/01/13 12:14:26;;;;;;;11.65;3.85;;;;;;;;;;5021563;28;20042;-77
2022/01/13 12:17:00;;;;;;;15.48;4.53;;;;;;;;;;4999618;28;20069;-74
2022/01/13 12:19:38;;;;;;;13.75;3.92;;;;;;;;;;5031595;28;20124;-73
2022/01/13 12:22:12;;;;;;;8.52;3.60;;;;;;;;;;5026842;28;20061;-74
2022/01/13 12:24:46;;;;;;;13.07;3.30;;;;;;;;;;5026305;28;20125;-75
2022/01/13 12:27:13;;;;;;;14.52;4.00;;;;;;;;;;5045794;28;20144;-73
2022/01/13 12:29:50;;;;;;;12.07;3.80;;;;;;;;;;5048121;28;20041;-74
2022/01/13 12:32:33;;;;;;;7.80;3.58;;;;;;;;;;5030051;28;20472;-76
2022/01/13 12:35:01;;;;;;;13.02;3.33;;;;;;;;;;5055114;28;20088;-75
2022/01/13 12:37:29;;;;;;;17.60;3.97;;;;;;;;;;5006263;28;20037;-75
2022/01/13 12:39:58;;;;;;;12.88;3.83;;;;;;;;;;5041392;28;20040;-77
2022/01/13 12:42:32;;;;;;;11.75;4.28;;;;;;;;;;5040108;28;20347;-75
2022/01/13 12:47:46;;;;;;;21.83;4.60;;;;;;;;;;4998095;28;20474;-73
2022/01/13 12:50:21;;;;;;;14.50;4.10;;;;;;;;;;5015296;28;20080;-73
2022/01/13 12:52:50;;;;;;;14.05;4.00;;;;;;;;;;5031479;28;20133;-73
2022/01/13 12:55:17;;;;;;;18.13;3.75;;;;;;;;;;5017947;28;20437;-75
2022/01/13 12:57:46;;;;;;;10.30;3.65;;;;;;;;;;5035317;28;20041;-75
2022/01/13 13:00:15;;;;;;;13.25;4.32;;;;;;;;;;5017558;28;20048;-77
2022/01/13 13:03:05;;;;;;;14.88;4.22;;;;;;;;;;5035235;28;20034;-74
2022/01/13 13:05:41;;;;;;;11.77;3.70;;;;;;;;;;5014519;28;20038;-75
2022/01/13 13:08:10;;;;;;;11.23;3.53;;;;;;;;;;5035468;28;20046;-74
2022/01/13 13:10:41;;;;;;;18.80;4.28;;;;;;;;;;5030456;28;20065;-75
2022/01/13 13:13:09;;;;;;;13.00;3.75;;;;;;;;;;5034825;28;20120;-74
2022/01/13 13:18:05;;;;;;;11.82;3.72;;;;;;;;;;5034807;28;20046;-76
2022/01/13 13:20:35;;;;;;;7.70;3.30;;;;;;;;;;5035863;28;20053;-74
2022/01/13 13:23:04;;;;;;;13.27;3.58;;;;;;;;;;5038867;28;20052;-74
2022/01/13 13:25:39;;;;;;;17.50;4.30;;;;;;;;;;5049953;28;20042;-74
2022/01/13 13:28:24;;;;;;;11.00;4.18;;;;;;;;;;5046768;28;20380;-75
2022/01/13 13:30:59;;;;;;;10.10;3.92;;;;;;;;;;5033406;28;20060;-75
2022/01/13 13:33:45;;;;;;;17.75;4.22;;;;;;;;;;5048623;28;20041;-77
2022/01/13 13:36:13;;;;;;;14.63;4.10;;;;;;;;;;5048348;28;20045;-74
2022/01/13 13:38:45;;;;;;;10.68;4.57;;;;;;;;;;5045057;28;20056;-77
2022/01/13 13:41:13;;;;;;;15.43;3.92;;;;;;;;;;5050815;28;20538;-72
2022/01/13 13:44:02;;;;;;;9.98;3.85;;;;;;;;;;5024904;28;20048;-74
2022/01/13 13:46:30;;;;;;;15.00;3.95;;;;;;;;;;5049208;28;20029;-75
2022/01/13 13:48:58;;;;;;;16.75;3.90;;;;;;;;;;5042105;28;20061;-75
2022/01/13 13:51:29;;;;;;;16.92;4.30;;;;;;;;;;5051455;28;20029;-74
2022/01/13 13:54:07;;;;;;;14.10;4.05;;;;;;;;;;5039217;28;20046;-75
2022/01/13 13:56:46;;;;;;;13.85;4.10;;;;;;;;;;5021624;28;20033;-76
2022/01/13 13:59:16;;;;;;;16.35;3.92;;;;;;;;;;5044969;28;20088;-75
2022/01/13 14:02:20;;;;;;;16.90;4.30;;;;;;;;;;5032032;28;20052;-74
2022/01/13 14:04:55;;;;;;;12.85;3.65;;;;;;;;;;5017399;28;20368;-74
2022/01/13 14:07:33;;;;;;;12.65;3.78;;;;;;;;;;5028273;28;20116;-76
2022/01/13 14:10:04;;;;;;;11.02;3.85;;;;;;;;;;5047201;28;20051;-74
2022/01/13 14:12:34;;;;;;;11.52;3.85;;;;;;;;;;5050258;28;20129;-75
2022/01/13 14:15:15;;;;;;;12.80;3.63;;;;;;;;;;5029811;28;20103;-75
2022/01/13 14:17:45;;;;;;;13.05;3.75;;;;;;;;;;5043708;28;20132;-76
2022/01/13 14:20:15;;;;;;;15.48;3.75;;;;;;;;;;5019283;28;20048;-73
2022/01/13 14:22:43;;;;;;;11.90;4.10;;;;;;;;;;5017742;28;20037;-75
2022/01/13 14:25:12;;;;;;;15.77;4.05;;;;;;;;;;5016857;28;20038;-77
2022/01/13 14:27:52;;;;;;;12.43;4.00;;;;;;;;;;5039582;28;20059;-74
2022/01/13 14:30:30;;;;;;;13.15;3.78;;;;;;;;;;5041486;28;20082;-75
2022/01/13 14:33:16;;;;;;;9.25;3.80;;;;;;;;;;5040966;28;20045;-74
2022/01/13 14:35:46;;;;;;;13.70;3.85;;;;;;;;;;5043995;28;20120;-74
2022/01/13 14:38:14;;;;;;;9.02;3.47;;;;;;;;;;5038082;28;20033;-73
2022/01/13 14:41:00;;;;;;;12.95;3.80;;;;;;;;;;5027911;28;20116;-77
2022/01/13 14:43:28;;;;;;;9.90;3.33;;;;;;;;;;4997138;28;20439;-75
2022/01/13 14:46:14;;;;;;;6.95;3.60;;;;;;;;;;5010486;28;20452;-74
2022/01/13 14:48:43;;;;;;;14.75;3.65;;;;;;;;;;5033575;28;20393;-73
2022/01/13 14:51:12;;;;;;;11.35;4.32;;;;;;;;;;5032548;28;20512;-73
2022/01/13 14:53:40;;;;;;;10.27;3.70;;;;;;;;;;5020220;28;20045;-73
2022/01/13 14:56:08;;;;;;;10.60;3.40;;;;;;;;;;5043203;28;20037;-77
2022/01/13 14:58:37;;;;;;;10.68;3.42;;;;;;;;;;5042260;28;20029;-74
2022/01/13 15:01:05;;;;;;;16.38;4.25;;;;;;;;;;5023445;28;20107;-74
2022/01/13 15:03:33;;;;;;;8.90;3.53;;;;;;;;;;5005082;28;20433;-75
2022/01/13 15:06:01;;;;;;;11.43;3.92;;;;;;;;;;5035576;28;20034;-74
2022/01/13 15:08:30;;;;;;;11.00;3.83;;;;;;;;;;5006676;28;20037;-77
2022/01/13 15:10:59;;;;;;;11.27;4.13;;;;;;;;;;5038818;28;20045;-74
2022/01/13 15:13:27;;;;;;;9.07;3.63;;;;;;;;;;5039330;28;20073;-77
2022/01/13 15:15:57;;;;;;;15.48;3.60;;;;;;;;;;5025522;28;20380;-77
2022/01/13 15:18:27;;;;;;;10.85;3.50;;;;;;;;;;5000542;28;20045;-75
2022/01/13 15:20:59;;;;;;;12.32;3.92;;;;;;;;;;5018158;28;20074;-76
2022/01/13 15:23:29;;;;;;;14.00;4.30;;;;;;;;;;5012928;28;20496;-73
2022/01/13 15:25:57;;;;;;;13.38;4.55;;;;;;;;;;5017225;28;20084;-77